sensor_id;sensor_type;location;lat;lon;timestamp;P1;durP1;ratioP1;P2;durP2;ratioP2
12715;SDS011;6422;49.938;9.124;2022-09-02T00:01:45;8.50;;;2.00;;
12715;SDS011;6422;49.938;9.124;2022-09-02T00:04:12;9.07;;;2.30;;
12715;SDS011;6422;49.938;9.124;2022-09-02T00:06:41;9.40;;;1.80;;
12715;SDS011;6422;49.938;9.124;2022-09-02T00:09:07;9.57;;;2.20;;
12715;SDS011;6422;49.938;9.124;2022-09-02T00:11:33;10.20;;;2.03;;
12715;SDS011;6422;49.938;9.124;2022-09-02T00:13:59;8.97;;;2.53;;
12715;SDS011;6422;49.938;9.124;2022-09-02T00:16:26;8.57;;;2.03;;
12715;SDS011;6422;49.938;9.124;2022-09-02T00:18:52;10.03;;;1.70;;
12715;SDS011;6422;49.938;9.124;2022-09-02T00:21:18;7.30;;;1.50;;
12715;SDS011;6422;49.938;9.124;2022-09-02T00:23:43;11.00;;;2.13;;
12715;SDS011;6422;49.938;9.124;2022-09-02T00:26:09;9.60;;;2.00;;
12715;SDS011;6422;49.938;9.124;2022-09-02T00:28:35;12.93;;;2.07;;
12715;SDS011;6422;49.938;9.124;2022-09-02T00:31:00;9.47;;;1.90;;
12715;SDS011;6422;49.938;9.124;2022-09-02T00:33:25;10.90;;;2.10;;
12715;SDS011;6422;49.938;9.124;2022-09-02T00:35:51;10.40;;;1.83;;
12715;SDS011;6422;49.938;9.124;2022-09-02T00:38:16;14.48;;;3.17;;
12715;SDS011;6422;49.938;9.124;2022-09-02T00:40:45;7.17;;;2.07;;
12715;SDS011;6422;49.938;9.124;2022-09-02T00:43:11;9.27;;;1.70;;
12715;SDS011;6422;49.938;9.124;2022-09-02T00:45:45;9.50;;;1.97;;
12715;SDS011;6422;49.938;9.124;2022-09-02T00:48:10;10.35;;;2.28;;
12715;SDS011;6422;49.938;9.124;2022-09-02T00:50:35;12.30;;;2.28;;
12715;SDS011;6422;49.938;9.124;2022-09-02T00:53:05;8.90;;;1.93;;
12715;SDS011;6422;49.938;9.124;2022-09-02T00:55:34;10.37;;;2.20;;
12715;SDS011;6422;49.938;9.124;2022-09-02T00:58:04;8.60;;;1.90;;
12715;SDS011;6422;49.938;9.124;2022-09-02T01:00:34;9.47;;;2.00;;
12715;SDS011;6422;49.938;9.124;2022-09-02T01:03:00;9.00;;;2.30;;
12715;SDS011;6422;49.938;9.124;2022-09-02T01:05:28;8.27;;;1.73;;
12715;SDS011;6422;49.938;9.124;2022-09-02T01:07:54;9.03;;;2.13;;
12715;SDS011;6422;49.938;9.124;2022-09-02T01:10:21;9.90;;;2.03;;
12715;SDS011;6422;49.938;9.124;2022-09-02T01:12:47;8.37;;;2.57;;
12715;SDS011;6422;49.938;9.124;2022-09-02T01:15:12;9.67;;;2.03;;
12715;SDS011;6422;49.938;9.124;2022-09-02T01:17:39;7.90;;;1.93;;
12715;SDS011;6422;49.938;9.124;2022-09-02T01:20:06;13.10;;;2.63;;
12715;SDS011;6422;49.938;9.124;2022-09-02T01:22:35;9.70;;;2.17;;
12715;SDS011;6422;49.938;9.124;2022-09-02T01:25:04;9.47;;;1.80;;
12715;SDS011;6422;49.938;9.124;2022-09-02T01:27:29;9.80;;;2.03;;
12715;SDS011;6422;49.938;9.124;2022-09-02T01:29:55;13.33;;;2.63;;
12715;SDS011;6422;49.938;9.124;2022-09-02T01:32:21;9.70;;;2.27;;
12715;SDS011;6422;49.938;9.124;2022-09-02T01:34:48;12.77;;;2.43;;
12715;SDS011;6422;49.938;9.124;2022-09-02T01:37:13;10.07;;;2.60;;
12715;SDS011;6422;49.938;9.124;2022-09-02T01:39:38;9.13;;;2.00;;
12715;SDS011;6422;49.938;9.124;2022-09-02T01:42:03;9.97;;;2.07;;
12715;SDS011;6422;49.938;9.124;2022-09-02T01:44:28;10.20;;;2.20;;
12715;SDS011;6422;49.938;9.124;2022-09-02T01:46:54;9.50;;;2.07;;
12715;SDS011;6422;49.938;9.124;2022-09-02T01:49:19;11.13;;;2.07;;
12715;SDS011;6422;49.938;9.124;2022-09-02T01:51:44;10.50;;;1.67;;
12715;SDS011;6422;49.938;9.124;2022-09-02T01:54:10;11.80;;;2.40;;
12715;SDS011;6422;49.938;9.124;2022-09-02T01:56:35;9.83;;;2.30;;
12715;SDS011;6422;49.938;9.124;2022-09-02T01:59:01;9.03;;;2.13;;
12715;SDS011;6422;49.938;9.124;2022-09-02T02:01:27;11.10;;;1.97;;
12715;SDS011;6422;49.938;9.124;2022-09-02T02:03:52;11.63;;;2.50;;
12715;SDS011;6422;49.938;9.124;2022-09-02T02:06:17;10.00;;;2.73;;
12715;SDS011;6422;49.938;9.124;2022-09-02T02:08:43;10.00;;;2.50;;
12715;SDS011;6422;49.938;9.124;2022-09-02T02:11:08;9.83;;;1.50;;
12715;SDS011;6422;49.938;9.124;2022-09-02T02:13:34;9.47;;;1.90;;
12715;SDS011;6422;49.938;9.124;2022-09-02T02:15:59;9.00;;;2.03;;
12715;SDS011;6422;49.938;9.124;2022-09-02T02:18:25;10.77;;;2.00;;
12715;SDS011;6422;49.938;9.124;2022-09-02T02:20:50;9.90;;;2.23;;
12715;SDS011;6422;49.938;9.124;2022-09-02T02:23:15;9.63;;;2.00;;
12715;SDS011;6422;49.938;9.124;2022-09-02T02:25:41;8.57;;;1.83;;
12715;SDS011;6422;49.938;9.124;2022-09-02T02:28:07;8.67;;;2.13;;
12715;SDS011;6422;49.938;9.124;2022-09-02T02:30:32;9.63;;;2.30;;
12715;SDS011;6422;49.938;9.124;2022-09-02T02:32:57;10.67;;;2.60;;
12715;SDS011;6422;49.938;9.124;2022-09-02T02:35:22;10.73;;;2.23;;
12715;SDS011;6422;49.938;9.124;2022-09-02T02:37:48;10.37;;;2.60;;
12715;SDS011;6422;49.938;9.124;2022-09-02T02:40:15;11.53;;;2.77;;
12715;SDS011;6422;49.938;9.124;2022-09-02T02:42:40;10.93;;;2.27;;
12715;SDS011;6422;49.938;9.124;2022-09-02T02:45:05;11.40;;;2.47;;
12715;SDS011;6422;49.938;9.124;2022-09-02T02:47:33;9.63;;;2.70;;
12715;SDS011;6422;49.938;9.124;2022-09-02T02:49:58;10.50;;;2.37;;
12715;SDS011;6422;49.938;9.124;2022-09-02T02:52:23;11.48;;;2.88;;
12715;SDS011;6422;49.938;9.124;2022-09-02T02:54:48;11.73;;;2.50;;
12715;SDS011;6422;49.938;9.124;2022-09-02T02:57:14;22.93;;;2.50;;
12715;SDS011;6422;49.938;9.124;2022-09-02T02:59:39;10.07;;;2.67;;
12715;SDS011;6422;49.938;9.124;2022-09-02T03:02:05;17.40;;;2.77;;
12715;SDS011;6422;49.938;9.124;2022-09-02T03:04:30;9.10;;;2.40;;
12715;SDS011;6422;49.938;9.124;2022-09-02T03:06:55;21.70;;;2.50;;
12715;SDS011;6422;49.938;9.124;2022-09-02T03:09:20;11.90;;;2.67;;
12715;SDS011;6422;49.938;9.124;2022-09-02T03:11:46;12.20;;;2.77;;
12715;SDS011;6422;49.938;9.124;2022-09-02T03:14:12;12.10;;;2.40;;
12715;SDS011;6422;49.938;9.124;2022-09-02T03:16:37;10.40;;;2.33;;
12715;SDS011;6422;49.938;9.124;2022-09-02T03:19:03;10.27;;;2.00;;
12715;SDS011;6422;49.938;9.124;2022-09-02T03:21:28;10.13;;;2.37;;
12715;SDS011;6422;49.938;9.124;2022-09-02T03:23:53;9.27;;;2.03;;
12715;SDS011;6422;49.938;9.124;2022-09-02T03:26:20;9.50;;;1.90;;
12715;SDS011;6422;49.938;9.124;2022-09-02T03:28:48;9.83;;;2.13;;
12715;SDS011;6422;49.938;9.124;2022-09-02T03:31:15;12.10;;;2.90;;
12715;SDS011;6422;49.938;9.124;2022-09-02T03:33:40;9.43;;;2.10;;
12715;SDS011;6422;49.938;9.124;2022-09-02T03:36:05;10.83;;;2.40;;
12715;SDS011;6422;49.938;9.124;2022-09-02T03:38:31;13.23;;;2.37;;
12715;SDS011;6422;49.938;9.124;2022-09-02T03:40:56;9.95;;;2.42;;
12715;SDS011;6422;49.938;9.124;2022-09-02T03:43:21;8.67;;;2.00;;
12715;SDS011;6422;49.938;9.124;2022-09-02T03:45:46;8.80;;;2.30;;
12715;SDS011;6422;49.938;9.124;2022-09-02T03:48:12;9.40;;;2.30;;
12715;SDS011;6422;49.938;9.124;2022-09-02T03:50:39;15.23;;;5.40;;
12715;SDS011;6422;49.938;9.124;2022-09-02T03:53:05;11.27;;;2.57;;
12715;SDS011;6422;49.938;9.124;2022-09-02T03:55:30;9.87;;;2.40;;
12715;SDS011;6422;49.938;9.124;2022-09-02T03:57:55;10.40;;;2.00;;
12715;SDS011;6422;49.938;9.124;2022-09-02T04:00:21;8.33;;;1.80;;
12715;SDS011;6422;49.938;9.124;2022-09-02T04:02:52;9.50;;;2.10;;
12715;SDS011;6422;49.938;9.124;2022-09-02T04:05:19;11.87;;;2.53;;
12715;SDS011;6422;49.938;9.124;2022-09-02T04:07:46;10.17;;;2.07;;
12715;SDS011;6422;49.938;9.124;2022-09-02T04:10:11;9.10;;;2.03;;
12715;SDS011;6422;49.938;9.124;2022-09-02T04:12:36;13.67;;;2.20;;
12715;SDS011;6422;49.938;9.124;2022-09-02T04:15:05;10.52;;;2.20;;
12715;SDS011;6422;49.938;9.124;2022-09-02T04:17:31;8.60;;;2.43;;
12715;SDS011;6422;49.938;9.124;2022-09-02T04:19:59;11.47;;;2.23;;
12715;SDS011;6422;49.938;9.124;2022-09-02T04:22:24;8.68;;;2.20;;
12715;SDS011;6422;49.938;9.124;2022-09-02T04:24:49;10.23;;;2.53;;
12715;SDS011;6422;49.938;9.124;2022-09-02T04:27:14;10.63;;;2.53;;
12715;SDS011;6422;49.938;9.124;2022-09-02T04:29:39;7.68;;;1.90;;
12715;SDS011;6422;49.938;9.124;2022-09-02T04:32:04;7.57;;;2.00;;
12715;SDS011;6422;49.938;9.124;2022-09-02T04:34:30;9.03;;;1.70;;
12715;SDS011;6422;49.938;9.124;2022-09-02T04:36:55;11.95;;;2.40;;
12715;SDS011;6422;49.938;9.124;2022-09-02T04:39:20;8.70;;;2.07;;
12715;SDS011;6422;49.938;9.124;2022-09-02T04:41:45;11.07;;;2.27;;
12715;SDS011;6422;49.938;9.124;2022-09-02T04:44:11;9.27;;;2.08;;
12715;SDS011;6422;49.938;9.124;2022-09-02T04:46:36;8.70;;;1.80;;
12715;SDS011;6422;49.938;9.124;2022-09-02T04:49:02;7.83;;;2.03;;
12715;SDS011;6422;49.938;9.124;2022-09-02T04:51:27;9.73;;;2.20;;
12715;SDS011;6422;49.938;9.124;2022-09-02T04:53:53;12.33;;;1.97;;
12715;SDS011;6422;49.938;9.124;2022-09-02T04:56:22;9.17;;;2.03;;
12715;SDS011;6422;49.938;9.124;2022-09-02T04:58:48;14.10;;;2.27;;
12715;SDS011;6422;49.938;9.124;2022-09-02T05:01:18;10.27;;;1.93;;
12715;SDS011;6422;49.938;9.124;2022-09-02T05:03:45;9.00;;;1.97;;
12715;SDS011;6422;49.938;9.124;2022-09-02T05:06:11;9.43;;;2.07;;
12715;SDS011;6422;49.938;9.124;2022-09-02T05:08:36;12.47;;;2.70;;
12715;SDS011;6422;49.938;9.124;2022-09-02T05:11:09;9.70;;;2.10;;
12715;SDS011;6422;49.938;9.124;2022-09-02T05:13:34;12.73;;;2.17;;
12715;SDS011;6422;49.938;9.124;2022-09-02T05:15:59;10.00;;;2.00;;
12715;SDS011;6422;49.938;9.124;2022-09-02T05:18:25;9.70;;;1.90;;
12715;SDS011;6422;49.938;9.124;2022-09-02T05:20:50;15.70;;;1.83;;
12715;SDS011;6422;49.938;9.124;2022-09-02T05:23:15;9.53;;;2.50;;
12715;SDS011;6422;49.938;9.124;2022-09-02T05:25:40;9.57;;;2.50;;
12715;SDS011;6422;49.938;9.124;2022-09-02T05:28:06;10.10;;;2.13;;
12715;SDS011;6422;49.938;9.124;2022-09-02T05:30:33;8.73;;;2.20;;
12715;SDS011;6422;49.938;9.124;2022-09-02T05:32:58;9.37;;;2.27;;
12715;SDS011;6422;49.938;9.124;2022-09-02T05:35:23;9.27;;;1.98;;
12715;SDS011;6422;49.938;9.124;2022-09-02T05:37:48;7.67;;;1.93;;
12715;SDS011;6422;49.938;9.124;2022-09-02T05:40:13;8.77;;;2.05;;
12715;SDS011;6422;49.938;9.124;2022-09-02T05:42:39;9.30;;;1.77;;
12715;SDS011;6422;49.938;9.124;2022-09-02T05:45:04;14.20;;;2.10;;
12715;SDS011;6422;49.938;9.124;2022-09-02T05:47:30;8.77;;;1.80;;
12715;SDS011;6422;49.938;9.124;2022-09-02T05:49:57;8.93;;;1.63;;
12715;SDS011;6422;49.938;9.124;2022-09-02T05:52:22;12.10;;;2.70;;
12715;SDS011;6422;49.938;9.124;2022-09-02T05:54:47;9.13;;;2.20;;
12715;SDS011;6422;49.938;9.124;2022-09-02T05:57:15;8.20;;;2.10;;
12715;SDS011;6422;49.938;9.124;2022-09-02T05:59:41;11.53;;;2.30;;
12715;SDS011;6422;49.938;9.124;2022-09-02T06:02:07;8.90;;;2.00;;
12715;SDS011;6422;49.938;9.124;2022-09-02T06:04:39;13.33;;;2.57;;
12715;SDS011;6422;49.938;9.124;2022-09-02T06:07:05;15.67;;;2.20;;
12715;SDS011;6422;49.938;9.124;2022-09-02T06:09:30;9.23;;;2.33;;
12715;SDS011;6422;49.938;9.124;2022-09-02T06:11:55;10.77;;;1.80;;
12715;SDS011;6422;49.938;9.124;2022-09-02T06:14:21;11.37;;;2.20;;
12715;SDS011;6422;49.938;9.124;2022-09-02T06:16:49;8.80;;;2.07;;
12715;SDS011;6422;49.938;9.124;2022-09-02T06:19:14;10.50;;;2.27;;
12715;SDS011;6422;49.938;9.124;2022-09-02T06:21:39;9.60;;;1.40;;
12715;SDS011;6422;49.938;9.124;2022-09-02T06:24:07;10.40;;;2.40;;
12715;SDS011;6422;49.938;9.124;2022-09-02T06:26:32;11.10;;;3.20;;
12715;SDS011;6422;49.938;9.124;2022-09-02T06:28:58;9.47;;;1.87;;
12715;SDS011;6422;49.938;9.124;2022-09-02T06:31:23;9.43;;;2.93;;
12715;SDS011;6422;49.938;9.124;2022-09-02T06:33:50;11.80;;;3.10;;
12715;SDS011;6422;49.938;9.124;2022-09-02T06:36:16;17.93;;;3.00;;
12715;SDS011;6422;49.938;9.124;2022-09-02T06:38:43;10.70;;;4.10;;
12715;SDS011;6422;49.938;9.124;2022-09-02T06:41:16;18.23;;;3.80;;
12715;SDS011;6422;49.938;9.124;2022-09-02T06:43:42;12.57;;;2.93;;
12715;SDS011;6422;49.938;9.124;2022-09-02T06:46:12;12.00;;;3.88;;
12715;SDS011;6422;49.938;9.124;2022-09-02T06:48:38;11.03;;;3.30;;
12715;SDS011;6422;49.938;9.124;2022-09-02T06:51:03;12.30;;;3.93;;
12715;SDS011;6422;49.938;9.124;2022-09-02T06:53:28;10.40;;;3.77;;
12715;SDS011;6422;49.938;9.124;2022-09-02T06:55:54;12.05;;;3.35;;
12715;SDS011;6422;49.938;9.124;2022-09-02T06:58:19;13.73;;;4.00;;
12715;SDS011;6422;49.938;9.124;2022-09-02T07:00:44;11.67;;;4.10;;
12715;SDS011;6422;49.938;9.124;2022-09-02T07:03:09;9.67;;;3.53;;
12715;SDS011;6422;49.938;9.124;2022-09-02T07:06:04;10.87;;;3.33;;
12715;SDS011;6422;49.938;9.124;2022-09-02T07:08:33;11.60;;;2.93;;
12715;SDS011;6422;49.938;9.124;2022-09-02T07:10:58;10.07;;;3.00;;
12715;SDS011;6422;49.938;9.124;2022-09-02T07:13:24;10.63;;;3.30;;
12715;SDS011;6422;49.938;9.124;2022-09-02T07:15:49;20.83;;;3.83;;
12715;SDS011;6422;49.938;9.124;2022-09-02T07:18:15;14.20;;;3.10;;
12715;SDS011;6422;49.938;9.124;2022-09-02T07:20:43;19.07;;;3.50;;
12715;SDS011;6422;49.938;9.124;2022-09-02T07:23:08;10.30;;;3.33;;
12715;SDS011;6422;49.938;9.124;2022-09-02T07:25:36;10.07;;;2.93;;
12715;SDS011;6422;49.938;9.124;2022-09-02T07:28:02;9.53;;;4.00;;
12715;SDS011;6422;49.938;9.124;2022-09-02T07:30:27;12.80;;;4.07;;
12715;SDS011;6422;49.938;9.124;2022-09-02T07:32:52;10.80;;;3.43;;
12715;SDS011;6422;49.938;9.124;2022-09-02T07:35:18;13.27;;;3.47;;
12715;SDS011;6422;49.938;9.124;2022-09-02T07:37:43;10.70;;;3.13;;
12715;SDS011;6422;49.938;9.124;2022-09-02T07:40:09;10.50;;;3.90;;
12715;SDS011;6422;49.938;9.124;2022-09-02T07:42:35;12.20;;;3.30;;
12715;SDS011;6422;49.938;9.124;2022-09-02T07:45:00;10.52;;;3.20;;
12715;SDS011;6422;49.938;9.124;2022-09-02T07:47:25;19.90;;;3.77;;
12715;SDS011;6422;49.938;9.124;2022-09-02T07:49:51;9.27;;;2.50;;
12715;SDS011;6422;49.938;9.124;2022-09-02T07:52:16;18.97;;;3.30;;
12715;SDS011;6422;49.938;9.124;2022-09-02T07:54:41;8.23;;;2.50;;
12715;SDS011;6422;49.938;9.124;2022-09-02T07:57:06;11.27;;;3.40;;
12715;SDS011;6422;49.938;9.124;2022-09-02T07:59:32;10.50;;;2.37;;
12715;SDS011;6422;49.938;9.124;2022-09-02T08:01:57;10.53;;;3.10;;
12715;SDS011;6422;49.938;9.124;2022-09-02T08:04:22;8.60;;;2.23;;
12715;SDS011;6422;49.938;9.124;2022-09-02T08:06:49;11.97;;;3.03;;
12715;SDS011;6422;49.938;9.124;2022-09-02T08:09:15;11.10;;;3.37;;
12715;SDS011;6422;49.938;9.124;2022-09-02T08:11:41;19.47;;;2.83;;
12715;SDS011;6422;49.938;9.124;2022-09-02T08:14:09;8.00;;;2.50;;
12715;SDS011;6422;49.938;9.124;2022-09-02T08:16:36;8.00;;;2.87;;
12715;SDS011;6422;49.938;9.124;2022-09-02T08:19:02;10.00;;;2.90;;
12715;SDS011;6422;49.938;9.124;2022-09-02T08:21:28;15.00;;;3.40;;
12715;SDS011;6422;49.938;9.124;2022-09-02T08:23:53;10.43;;;3.97;;
12715;SDS011;6422;49.938;9.124;2022-09-02T08:26:18;10.27;;;2.70;;
12715;SDS011;6422;49.938;9.124;2022-09-02T08:28:43;11.47;;;3.17;;
12715;SDS011;6422;49.938;9.124;2022-09-02T08:31:09;10.80;;;2.57;;
12715;SDS011;6422;49.938;9.124;2022-09-02T08:33:35;15.03;;;3.50;;
12715;SDS011;6422;49.938;9.124;2022-09-02T08:36:01;9.90;;;2.60;;
12715;SDS011;6422;49.938;9.124;2022-09-02T08:38:26;9.30;;;2.97;;
12715;SDS011;6422;49.938;9.124;2022-09-02T08:40:51;10.97;;;3.03;;
12715;SDS011;6422;49.938;9.124;2022-09-02T08:43:21;8.40;;;3.13;;
12715;SDS011;6422;49.938;9.124;2022-09-02T08:45:50;10.60;;;3.33;;
12715;SDS011;6422;49.938;9.124;2022-09-02T08:48:18;10.80;;;2.83;;
12715;SDS011;6422;49.938;9.124;2022-09-02T08:50:45;10.20;;;3.47;;
12715;SDS011;6422;49.938;9.124;2022-09-02T08:53:31;8.40;;;2.87;;
12715;SDS011;6422;49.938;9.124;2022-09-02T08:55:58;11.53;;;3.03;;
12715;SDS011;6422;49.938;9.124;2022-09-02T08:58:29;11.27;;;2.97;;
12715;SDS011;6422;49.938;9.124;2022-09-02T09:01:00;9.60;;;3.00;;
12715;SDS011;6422;49.938;9.124;2022-09-02T09:06:15;9.50;;;3.73;;
12715;SDS011;6422;49.938;9.124;2022-09-02T09:08:49;9.43;;;3.13;;
12715;SDS011;6422;49.938;9.124;2022-09-02T09:11:22;10.57;;;3.30;;
12715;SDS011;6422;49.938;9.124;2022-09-02T09:16:55;11.50;;;3.83;;
12715;SDS011;6422;49.938;9.124;2022-09-02T09:19:46;10.00;;;2.80;;
12715;SDS011;6422;49.938;9.124;2022-09-02T09:22:12;10.20;;;2.90;;
12715;SDS011;6422;49.938;9.124;2022-09-02T09:24:39;10.73;;;3.13;;
12715;SDS011;6422;49.938;9.124;2022-09-02T09:27:08;8.60;;;3.10;;
12715;SDS011;6422;49.938;9.124;2022-09-02T09:29:33;10.63;;;3.00;;
12715;SDS011;6422;49.938;9.124;2022-09-02T09:32:00;10.10;;;2.70;;
12715;SDS011;6422;49.938;9.124;2022-09-02T09:34:46;16.00;;;2.87;;
12715;SDS011;6422;49.938;9.124;2022-09-02T09:37:10;13.23;;;3.80;;
12715;SDS011;6422;49.938;9.124;2022-09-02T09:39:35;9.75;;;3.42;;
12715;SDS011;6422;49.938;9.124;2022-09-02T09:42:01;8.77;;;2.88;;
12715;SDS011;6422;49.938;9.124;2022-09-02T09:44:43;11.13;;;3.83;;
12715;SDS011;6422;49.938;9.124;2022-09-02T09:47:11;11.13;;;3.47;;
12715;SDS011;6422;49.938;9.124;2022-09-02T09:49:38;11.37;;;3.50;;
12715;SDS011;6422;49.938;9.124;2022-09-02T09:52:04;7.90;;;3.37;;
12715;SDS011;6422;49.938;9.124;2022-09-02T09:54:29;9.40;;;3.53;;
12715;SDS011;6422;49.938;9.124;2022-09-02T09:56:54;11.93;;;3.30;;
12715;SDS011;6422;49.938;9.124;2022-09-02T09:59:35;11.20;;;3.63;;
12715;SDS011;6422;49.938;9.124;2022-09-02T10:02:01;10.70;;;3.47;;
12715;SDS011;6422;49.938;9.124;2022-09-02T10:04:30;10.80;;;3.27;;
12715;SDS011;6422;49.938;9.124;2022-09-02T10:06:56;9.90;;;3.27;;
12715;SDS011;6422;49.938;9.124;2022-09-02T10:09:28;12.03;;;3.17;;
12715;SDS011;6422;49.938;9.124;2022-09-02T10:14:19;10.18;;;2.72;;
12715;SDS011;6422;49.938;9.124;2022-09-02T10:19:31;9.70;;;3.50;;
12715;SDS011;6422;49.938;9.124;2022-09-02T10:22:04;9.40;;;3.23;;
12715;SDS011;6422;49.938;9.124;2022-09-02T10:27:15;10.27;;;3.70;;
12715;SDS011;6422;49.938;9.124;2022-09-02T10:35:07;10.57;;;2.93;;
12715;SDS011;6422;49.938;9.124;2022-09-02T10:40:16;10.40;;;2.90;;
12715;SDS011;6422;49.938;9.124;2022-09-02T10:56:22;10.03;;;3.03;;
12715;SDS011;6422;49.938;9.124;2022-09-02T11:01:36;11.87;;;2.70;;
12715;SDS011;6422;49.938;9.124;2022-09-02T11:06:40;9.67;;;2.87;;
12715;SDS011;6422;49.938;9.124;2022-09-02T11:09:11;12.97;;;3.20;;
12715;SDS011;6422;49.938;9.124;2022-09-02T11:11:57;9.23;;;3.50;;
12715;SDS011;6422;49.938;9.124;2022-09-02T11:15:01;8.87;;;3.57;;
12715;SDS011;6422;49.938;9.124;2022-09-02T11:22:42;8.03;;;2.60;;
12715;SDS011;6422;49.938;9.124;2022-09-02T11:25:23;9.27;;;2.77;;
12715;SDS011;6422;49.938;9.124;2022-09-02T11:27:54;12.48;;;2.78;;
12715;SDS011;6422;49.938;9.124;2022-09-02T11:30:24;10.90;;;3.37;;
12715;SDS011;6422;49.938;9.124;2022-09-02T11:35:36;8.97;;;3.00;;
12715;SDS011;6422;49.938;9.124;2022-09-02T11:38:04;11.90;;;3.10;;
12715;SDS011;6422;49.938;9.124;2022-09-02T11:51:09;8.97;;;3.53;;
12715;SDS011;6422;49.938;9.124;2022-09-02T11:53:40;9.13;;;3.17;;
12715;SDS011;6422;49.938;9.124;2022-09-02T11:56:13;9.97;;;3.30;;
12715;SDS011;6422;49.938;9.124;2022-09-02T11:58:42;10.60;;;3.15;;
12715;SDS011;6422;49.938;9.124;2022-09-02T12:03:41;9.20;;;3.17;;
12715;SDS011;6422;49.938;9.124;2022-09-02T12:06:08;15.73;;;3.20;;
12715;SDS011;6422;49.938;9.124;2022-09-02T12:11:01;8.73;;;3.00;;
12715;SDS011;6422;49.938;9.124;2022-09-02T12:21:17;8.97;;;2.70;;
12715;SDS011;6422;49.938;9.124;2022-09-02T12:26:12;9.43;;;3.13;;
12715;SDS011;6422;49.938;9.124;2022-09-02T12:28:38;10.40;;;2.80;;
12715;SDS011;6422;49.938;9.124;2022-09-02T12:36:00;16.10;;;3.20;;
12715;SDS011;6422;49.938;9.124;2022-09-02T12:45:55;9.40;;;2.80;;
12715;SDS011;6422;49.938;9.124;2022-09-02T12:48:23;13.10;;;2.97;;
12715;SDS011;6422;49.938;9.124;2022-09-02T12:50:55;11.50;;;2.83;;
12715;SDS011;6422;49.938;9.124;2022-09-02T12:58:47;10.90;;;2.90;;
12715;SDS011;6422;49.938;9.124;2022-09-02T13:20:08;17.20;;;3.93;;
12715;SDS011;6422;49.938;9.124;2022-09-02T13:27:46;11.43;;;3.20;;
12715;SDS011;6422;49.938;9.124;2022-09-02T13:30:19;9.33;;;3.10;;
12715;SDS011;6422;49.938;9.124;2022-09-02T13:32:54;7.30;;;2.70;;
12715;SDS011;6422;49.938;9.124;2022-09-02T13:35:20;9.60;;;2.90;;
12715;SDS011;6422;49.938;9.124;2022-09-02T13:37:54;8.50;;;2.90;;
12715;SDS011;6422;49.938;9.124;2022-09-02T13:40:30;9.90;;;3.50;;
12715;SDS011;6422;49.938;9.124;2022-09-02T13:43:02;9.67;;;2.80;;
12715;SDS011;6422;49.938;9.124;2022-09-02T13:45:28;9.90;;;2.80;;
12715;SDS011;6422;49.938;9.124;2022-09-02T13:47:55;12.77;;;3.43;;
12715;SDS011;6422;49.938;9.124;2022-09-02T13:50:21;12.07;;;2.93;;
12715;SDS011;6422;49.938;9.124;2022-09-02T13:52:49;13.60;;;3.33;;
12715;SDS011;6422;49.938;9.124;2022-09-02T13:55:15;7.87;;;2.80;;
12715;SDS011;6422;49.938;9.124;2022-09-02T13:57:44;11.00;;;3.13;;
12715;SDS011;6422;49.938;9.124;2022-09-02T14:00:14;11.47;;;3.00;;
12715;SDS011;6422;49.938;9.124;2022-09-02T14:02:59;9.83;;;3.20;;
12715;SDS011;6422;49.938;9.124;2022-09-02T14:05:25;9.37;;;3.00;;
12715;SDS011;6422;49.938;9.124;2022-09-02T14:07:52;8.97;;;2.93;;
12715;SDS011;6422;49.938;9.124;2022-09-02T14:10:19;10.77;;;3.43;;
12715;SDS011;6422;49.938;9.124;2022-09-02T14:12:46;10.33;;;4.37;;
12715;SDS011;6422;49.938;9.124;2022-09-02T14:15:13;9.33;;;3.60;;
12715;SDS011;6422;49.938;9.124;2022-09-02T14:17:38;9.53;;;2.60;;
12715;SDS011;6422;49.938;9.124;2022-09-02T14:20:17;10.80;;;3.40;;
12715;SDS011;6422;49.938;9.124;2022-09-02T14:22:50;10.00;;;3.10;;
12715;SDS011;6422;49.938;9.124;2022-09-02T14:25:16;10.10;;;3.40;;
12715;SDS011;6422;49.938;9.124;2022-09-02T14:27:54;10.33;;;3.20;;
12715;SDS011;6422;49.938;9.124;2022-09-02T14:30:33;8.43;;;3.27;;
12715;SDS011;6422;49.938;9.124;2022-09-02T14:38:28;9.57;;;3.03;;
12715;SDS011;6422;49.938;9.124;2022-09-02T14:41:04;6.93;;;3.10;;
12715;SDS011;6422;49.938;9.124;2022-09-02T14:43:33;9.43;;;3.13;;
12715;SDS011;6422;49.938;9.124;2022-09-02T14:46:05;18.83;;;3.50;;
12715;SDS011;6422;49.938;9.124;2022-09-02T14:48:33;12.13;;;3.70;;
12715;SDS011;6422;49.938;9.124;2022-09-02T14:51:00;11.57;;;3.30;;
12715;SDS011;6422;49.938;9.124;2022-09-02T14:53:27;10.33;;;2.43;;
12715;SDS011;6422;49.938;9.124;2022-09-02T14:55:53;12.20;;;2.70;;
12715;SDS011;6422;49.938;9.124;2022-09-02T14:58:19;9.13;;;2.90;;
12715;SDS011;6422;49.938;9.124;2022-09-02T15:00:46;9.43;;;2.57;;
12715;SDS011;6422;49.938;9.124;2022-09-02T15:03:12;8.60;;;3.03;;
12715;SDS011;6422;49.938;9.124;2022-09-02T15:05:38;12.10;;;3.37;;
12715;SDS011;6422;49.938;9.124;2022-09-02T15:08:03;8.38;;;3.08;;
12715;SDS011;6422;49.938;9.124;2022-09-02T15:10:29;9.13;;;3.00;;
12715;SDS011;6422;49.938;9.124;2022-09-02T15:12:55;7.97;;;2.67;;
12715;SDS011;6422;49.938;9.124;2022-09-02T15:15:21;11.53;;;3.00;;
12715;SDS011;6422;49.938;9.124;2022-09-02T15:17:46;11.37;;;3.93;;
12715;SDS011;6422;49.938;9.124;2022-09-02T15:20:12;8.40;;;3.30;;
12715;SDS011;6422;49.938;9.124;2022-09-02T15:22:37;10.43;;;3.00;;
12715;SDS011;6422;49.938;9.124;2022-09-02T15:25:02;10.47;;;2.90;;
12715;SDS011;6422;49.938;9.124;2022-09-02T15:27:29;10.33;;;2.93;;
12715;SDS011;6422;49.938;9.124;2022-09-02T15:29:55;9.37;;;3.30;;
12715;SDS011;6422;49.938;9.124;2022-09-02T15:32:20;11.18;;;2.42;;
12715;SDS011;6422;49.938;9.124;2022-09-02T15:34:45;10.93;;;2.80;;
12715;SDS011;6422;49.938;9.124;2022-09-02T15:37:10;10.60;;;3.37;;
12715;SDS011;6422;49.938;9.124;2022-09-02T15:39:36;9.63;;;3.00;;
12715;SDS011;6422;49.938;9.124;2022-09-02T15:42:01;9.38;;;2.45;;
12715;SDS011;6422;49.938;9.124;2022-09-02T15:44:26;11.80;;;3.10;;
12715;SDS011;6422;49.938;9.124;2022-09-02T15:46:53;6.77;;;2.57;;
12715;SDS011;6422;49.938;9.124;2022-09-02T15:49:18;7.97;;;3.37;;
12715;SDS011;6422;49.938;9.124;2022-09-02T15:51:44;9.77;;;2.90;;
12715;SDS011;6422;49.938;9.124;2022-09-02T15:54:10;10.00;;;2.83;;
12715;SDS011;6422;49.938;9.124;2022-09-02T15:56:36;13.60;;;2.90;;
12715;SDS011;6422;49.938;9.124;2022-09-02T15:59:06;7.03;;;2.70;;
12715;SDS011;6422;49.938;9.124;2022-09-02T16:01:35;9.20;;;2.80;;
12715;SDS011;6422;49.938;9.124;2022-09-02T16:04:02;11.30;;;3.40;;
12715;SDS011;6422;49.938;9.124;2022-09-02T16:06:28;9.87;;;2.80;;
12715;SDS011;6422;49.938;9.124;2022-09-02T16:08:53;9.77;;;3.43;;
12715;SDS011;6422;49.938;9.124;2022-09-02T16:11:19;8.80;;;3.10;;
12715;SDS011;6422;49.938;9.124;2022-09-02T16:13:45;8.83;;;2.70;;
12715;SDS011;6422;49.938;9.124;2022-09-02T16:16:11;11.40;;;2.43;;
12715;SDS011;6422;49.938;9.124;2022-09-02T16:18:36;10.10;;;2.80;;
12715;SDS011;6422;49.938;9.124;2022-09-02T16:21:02;8.63;;;3.33;;
12715;SDS011;6422;49.938;9.124;2022-09-02T16:23:28;8.70;;;3.27;;
12715;SDS011;6422;49.938;9.124;2022-09-02T16:28:39;11.73;;;3.10;;
12715;SDS011;6422;49.938;9.124;2022-09-02T16:31:05;9.27;;;3.17;;
12715;SDS011;6422;49.938;9.124;2022-09-02T16:33:31;9.23;;;3.03;;
12715;SDS011;6422;49.938;9.124;2022-09-02T16:35:56;11.50;;;2.60;;
12715;SDS011;6422;49.938;9.124;2022-09-02T16:38:21;14.83;;;2.30;;
12715;SDS011;6422;49.938;9.124;2022-09-02T16:40:50;13.53;;;4.17;;
12715;SDS011;6422;49.938;9.124;2022-09-02T16:43:15;9.03;;;3.60;;
12715;SDS011;6422;49.938;9.124;2022-09-02T16:45:40;10.53;;;3.50;;
12715;SDS011;6422;49.938;9.124;2022-09-02T16:48:05;10.90;;;3.65;;
12715;SDS011;6422;49.938;9.124;2022-09-02T16:50:31;11.40;;;3.40;;
12715;SDS011;6422;49.938;9.124;2022-09-02T16:52:56;16.55;;;4.55;;
12715;SDS011;6422;49.938;9.124;2022-09-02T16:55:21;13.73;;;4.63;;
12715;SDS011;6422;49.938;9.124;2022-09-02T16:57:46;10.63;;;2.83;;